Terminal Aerodrome Forecast
Issued by NWS King Salmon, AK

Home | Current Version | Previous Version | Text Only | Print | Product List | Glossary On
Versions: 1 2 3 4 5 6 7 8 9 10 11 12 13 14 15 16
000
FTAK31 PANC 231142
TAFAKN
TAF
PAKN 231142Z 2312/2412 12006KT P6SM BKN035
      TEMPO 2312/2316 BKN030
     FM231800 14015G25KT P6SM SCT040
     FM240600 17010KT P6SM -SHRA BKN025 OVC050=

USA.gov is the U.S. government's official web portal to all federal, state and local government web resources and services.